createdAt,value
2016-07-24T00:00:28.236Z,1015.03
2016-07-24T00:01:28.263Z,1015.02
2016-07-24T00:02:28.289Z,1015.04
2016-07-24T00:03:28.325Z,1015.01
2016-07-24T00:04:28.344Z,1014.97
2016-07-24T00:05:28.386Z,1014.97
2016-07-24T00:06:28.401Z,1014.94
2016-07-24T00:07:28.429Z,1014.96
2016-07-24T00:08:28.455Z,1014.98
2016-07-24T00:09:28.484Z,1015.07
2016-07-24T00:10:28.511Z,1015.01
2016-07-24T00:11:28.536Z,1015.03
2016-07-24T00:12:28.566Z,1015.02
2016-07-24T00:13:28.600Z,1015.06
2016-07-24T00:14:28.619Z,1015.05
2016-07-24T00:15:28.654Z,1015.04
2016-07-24T00:16:28.673Z,1015.07
2016-07-24T00:17:28.707Z,1015.03
2016-07-24T00:18:28.729Z,1015.03
2016-07-24T00:19:28.805Z,1014.99
2016-07-24T00:20:28.783Z,1015.01
2016-07-24T00:21:28.813Z,1014.98
2016-07-24T00:22:28.840Z,1015
2016-07-24T00:23:28.867Z,1015.05
2016-07-24T00:24:28.906Z,1015.03
2016-07-24T00:25:28.922Z,1015.04
2016-07-24T00:26:28.946Z,1015.04
2016-07-24T00:27:28.977Z,1015.02
2016-07-24T00:28:29.004Z,1015.04
2016-07-24T00:29:29.031Z,1015
2016-07-24T00:31:29.084Z,1015.01
2016-07-24T00:32:29.112Z,1015.01
2016-07-24T00:33:29.139Z,1014.98
2016-07-24T00:34:29.166Z,1015.01
2016-07-24T00:35:29.201Z,1015.03
2016-07-24T00:36:29.222Z,1015.03
2016-07-24T00:37:29.249Z,1015.02
2016-07-24T00:38:29.278Z,1015.05
2016-07-24T00:39:29.303Z,1015.06
2016-07-24T00:40:29.333Z,1015.07
2016-07-24T00:41:29.359Z,1015.08
2016-07-24T00:42:29.388Z,1015.08
2016-07-24T00:43:29.423Z,1015.08
2016-07-24T00:44:29.440Z,1015.05
2016-07-24T00:45:29.470Z,1015.03
2016-07-24T00:47:29.525Z,1015.02
2016-07-24T00:48:29.551Z,1015.02
2016-07-24T00:49:29.577Z,1015.01
2016-07-24T00:50:29.604Z,1015.04
2016-07-24T00:51:29.634Z,1015.06
2016-07-24T00:52:29.661Z,1015.09
2016-07-24T00:53:29.689Z,1015.08
2016-07-24T00:54:29.716Z,1015.1
2016-07-24T00:55:29.743Z,1015.09
2016-07-24T00:56:29.771Z,1015.09
2016-07-24T00:57:29.803Z,1015.08
2016-07-24T00:58:29.824Z,1015.08
2016-07-24T00:59:29.851Z,1015.07
2016-07-24T01:00:29.878Z,1015.06
2016-07-24T01:01:29.904Z,1015.05
2016-07-24T01:03:29.959Z,1015.03
2016-07-24T01:04:29.989Z,1015.03
2016-07-24T01:05:30.015Z,1015.01
2016-07-24T01:06:30.043Z,1015.05
2016-07-24T01:07:30.076Z,1015.08
2016-07-24T01:08:30.098Z,1015.11
2016-07-24T01:09:30.135Z,1015.11
2016-07-24T01:10:30.151Z,1015.11
2016-07-24T01:11:30.184Z,1015.08
2016-07-24T01:12:30.205Z,1015.09
2016-07-24T01:13:30.233Z,1015.08
2016-07-24T01:14:30.258Z,1015.05
2016-07-24T01:15:30.286Z,1015.05
2016-07-24T01:16:30.314Z,1014.99
2016-07-24T01:17:30.341Z,1015.02
2016-07-24T01:19:30.398Z,1015.03
2016-07-24T01:20:30.425Z,1015.06
2016-07-24T01:21:30.450Z,1015.09
2016-07-24T01:22:30.479Z,1015.05
2016-07-24T01:23:30.506Z,1015.08
2016-07-24T01:24:30.533Z,1015.08
2016-07-24T01:25:30.559Z,1015.12
2016-07-24T01:26:30.586Z,1015.11
2016-07-24T01:27:30.614Z,1015.14
2016-07-24T01:28:30.639Z,1015.14
2016-07-24T01:29:30.667Z,1015.15
2016-07-24T01:30:30.697Z,1015.14
2016-07-24T01:31:30.723Z,1015.17
2016-07-24T01:32:30.752Z,1015.15
2016-07-24T01:34:30.805Z,1015.13
2016-07-24T01:35:30.831Z,1015.12
2016-07-24T01:36:30.859Z,1015.07
2016-07-24T01:37:30.888Z,1015.12
2016-07-24T01:38:30.916Z,1015.09
2016-07-24T01:39:30.940Z,1015.05
2016-07-24T01:40:30.970Z,1015.12
2016-07-24T01:41:31.003Z,1015.07
2016-07-24T01:42:31.026Z,1015.06
2016-07-24T01:43:31.052Z,1015.06
2016-07-24T01:44:31.079Z,1015.08
2016-07-24T01:45:31.107Z,1015.06
2016-07-24T01:46:31.131Z,1015.09
2016-07-24T01:47:31.158Z,1015.03
2016-07-24T01:48:31.186Z,1015.05
2016-07-24T01:49:31.213Z,1015.05
2016-07-24T01:50:31.239Z,1015.05
2016-07-24T01:51:31.271Z,1015.04
2016-07-24T01:52:31.295Z,1015.04
2016-07-24T01:53:31.324Z,1015.02
2016-07-24T01:54:31.347Z,1014.99
2016-07-24T01:55:31.378Z,1014.98
2016-07-24T01:56:31.405Z,1014.96
2016-07-24T01:57:31.435Z,1014.97
2016-07-24T01:58:31.456Z,1014.99
2016-07-24T01:59:31.487Z,1014.98
2016-07-24T02:00:31.514Z,1015.02
2016-07-24T02:01:31.539Z,1015.02
2016-07-24T02:02:31.566Z,1015.06
2016-07-24T02:03:31.595Z,1015.09
2016-07-24T02:04:31.622Z,1015.08
2016-07-24T02:06:31.677Z,1015.05
2016-07-24T02:07:31.702Z,1015.08
2016-07-24T02:08:31.730Z,1015.07
2016-07-24T02:09:31.758Z,1015.07
2016-07-24T02:10:31.783Z,1015.09
2016-07-24T02:11:31.811Z,1015.12
2016-07-24T02:12:31.837Z,1015.07
2016-07-24T02:13:31.864Z,1015.1
2016-07-24T02:14:31.892Z,1015.08
2016-07-24T02:15:31.920Z,1015.08
2016-07-24T02:16:31.948Z,1015.08
2016-07-24T02:17:31.974Z,1015.07
2016-07-24T02:18:32.003Z,1015.06
2016-07-24T02:19:32.026Z,1015.05
2016-07-24T02:20:32.054Z,1015.04
2016-07-24T02:22:32.111Z,1015.06
2016-07-24T02:23:32.137Z,1015.03
2016-07-24T02:24:32.164Z,1015.05
2016-07-24T02:25:32.191Z,1015.06
2016-07-24T02:26:32.218Z,1015.07
2016-07-24T02:27:32.244Z,1015.05
2016-07-24T02:28:32.273Z,1015.05
2016-07-24T02:29:32.297Z,1015.08
2016-07-24T02:30:32.328Z,1015.06
2016-07-24T02:31:32.353Z,1015.07
2016-07-24T02:32:32.381Z,1015.06
2016-07-24T02:33:32.406Z,1015.07
2016-07-24T02:34:32.432Z,1015.06
2016-07-24T02:35:32.461Z,1015.06
2016-07-24T02:36:32.489Z,1014.99
2016-07-24T02:38:32.544Z,1015.02
2016-07-24T02:39:32.568Z,1015.01
2016-07-24T02:40:32.595Z,1014.99
2016-07-24T02:41:32.622Z,1015.01
2016-07-24T02:42:32.649Z,1015
2016-07-24T02:43:32.679Z,1015.01
2016-07-24T02:44:32.706Z,1015.01
2016-07-24T02:45:32.732Z,1015.02
2016-07-24T02:46:32.758Z,1015
2016-07-24T02:47:32.787Z,1015.01
2016-07-24T02:48:32.813Z,1015.02
2016-07-24T02:49:32.838Z,1014.98
2016-07-24T02:50:32.868Z,1014.98
2016-07-24T02:51:32.898Z,1015.01
2016-07-24T02:52:32.922Z,1015
2016-07-24T02:54:32.974Z,1015
2016-07-24T02:55:33.001Z,1015.03
2016-07-24T02:56:33.028Z,1015.01
2016-07-24T02:57:33.054Z,1015.01
2016-07-24T02:58:33.082Z,1014.99
2016-07-24T02:59:33.107Z,1014.99
2016-07-24T03:00:33.135Z,1014.99
2016-07-24T03:01:33.164Z,1015.01
2016-07-24T03:02:33.190Z,1014.98
2016-07-24T03:03:33.215Z,1014.99
2016-07-24T03:04:33.244Z,1015.03
2016-07-24T03:05:33.273Z,1014.99
2016-07-24T03:06:33.298Z,1015.05
2016-07-24T03:07:33.327Z,1015.06
2016-07-24T03:09:33.380Z,1015.04
2016-07-24T03:10:33.407Z,1015.06
2016-07-24T03:11:33.433Z,1015.06
2016-07-24T03:12:33.459Z,1015.04
2016-07-24T03:13:33.490Z,1015.03
2016-07-24T03:14:33.515Z,1015.04
2016-07-24T03:15:33.541Z,1015.02
2016-07-24T03:16:33.571Z,1015.01
2016-07-24T03:17:33.595Z,1015.01
2016-07-24T03:18:33.624Z,1015.04
2016-07-24T03:19:33.649Z,1015.01
2016-07-24T03:20:33.676Z,1015.01
2016-07-24T03:21:33.703Z,1015.02
2016-07-24T03:22:33.730Z,1015.06
2016-07-24T03:23:33.758Z,1015.06
2016-07-24T03:24:33.784Z,1015.08
2016-07-24T03:25:33.810Z,1015.06
2016-07-24T03:26:33.837Z,1015.08
2016-07-24T03:27:33.864Z,1015.07
2016-07-24T03:28:33.893Z,1015.08
2016-07-24T03:29:33.917Z,1015.09
2016-07-24T03:30:33.947Z,1015.04
2016-07-24T03:31:33.974Z,1015.08
2016-07-24T03:32:33.998Z,1015.06
2016-07-24T03:33:34.025Z,1015.12
2016-07-24T03:34:34.054Z,1015.06
2016-07-24T03:35:34.081Z,1015.15
2016-07-24T03:36:34.105Z,1015.16
2016-07-24T03:37:34.133Z,1015.18
2016-07-24T03:38:34.162Z,1015.23
2016-07-24T03:39:34.189Z,1015.22
2016-07-24T03:41:34.246Z,1015.2
2016-07-24T03:42:34.267Z,1015.22
2016-07-24T03:43:34.293Z,1015.2
2016-07-24T03:44:34.322Z,1015.14
2016-07-24T03:45:34.350Z,1015.17
2016-07-24T03:46:34.375Z,1015.14
2016-07-24T03:47:34.400Z,1015.2
2016-07-24T03:48:34.428Z,1015.2
2016-07-24T03:49:34.457Z,1015.18
2016-07-24T03:50:34.483Z,1015.21
2016-07-24T03:51:34.511Z,1015.17
2016-07-24T03:52:34.535Z,1015.19
2016-07-24T03:53:34.566Z,1015.22
2016-07-24T03:54:34.591Z,1015.18
2016-07-24T03:55:34.616Z,1015.17
2016-07-24T03:57:34.671Z,1015.17
2016-07-24T03:58:34.696Z,1015.11
2016-07-24T03:59:34.725Z,1015.15
2016-07-24T04:00:34.751Z,1015.13
2016-07-24T04:01:34.778Z,1015.12
2016-07-24T04:02:34.806Z,1015.13
2016-07-24T04:03:34.834Z,1015.13
2016-07-24T04:04:34.859Z,1015.09
2016-07-24T04:05:34.887Z,1015.14
2016-07-24T04:06:34.913Z,1015.1
2016-07-24T04:07:34.939Z,1015.14
2016-07-24T04:08:34.967Z,1015.12
2016-07-24T04:09:34.995Z,1015.13
2016-07-24T04:10:35.020Z,1015.13
2016-07-24T04:11:35.049Z,1015.17
2016-07-24T04:13:35.101Z,1015.12
2016-07-24T04:14:35.129Z,1015.1
2016-07-24T04:15:35.158Z,1015.1
2016-07-24T04:16:35.182Z,1015.1
2016-07-24T04:17:35.208Z,1015.1
2016-07-24T04:18:35.236Z,1015.11
2016-07-24T04:19:35.264Z,1015.11
2016-07-24T04:20:35.292Z,1015.07
2016-07-24T04:21:35.316Z,1015.06
2016-07-24T04:22:35.346Z,1015.12
2016-07-24T04:23:35.370Z,1015.11
2016-07-24T04:24:35.400Z,1015.11
2016-07-24T04:25:35.427Z,1015.1
2016-07-24T04:26:35.455Z,1015.09
2016-07-24T04:27:35.478Z,1015.11
2016-07-24T04:29:35.535Z,1015.12
2016-07-24T04:30:35.562Z,1015.14
2016-07-24T04:31:35.587Z,1015.14
2016-07-24T04:32:35.615Z,1015.16
2016-07-24T04:33:35.642Z,1015.13
2016-07-24T04:34:35.669Z,1015.16
2016-07-24T04:35:35.696Z,1015.13
2016-07-24T04:36:35.725Z,1015.13
2016-07-24T04:37:35.751Z,1015.14
2016-07-24T04:38:35.777Z,1015.09
2016-07-24T04:39:35.805Z,1015.13
2016-07-24T04:40:35.832Z,1015.11
2016-07-24T04:41:35.862Z,1015.15
2016-07-24T04:42:35.887Z,1015.13
2016-07-24T04:44:35.942Z,1015.19
2016-07-24T04:45:35.971Z,1015.16
2016-07-24T04:46:35.997Z,1015.17
2016-07-24T04:47:36.025Z,1015.15
2016-07-24T04:48:36.051Z,1015.14
2016-07-24T04:49:36.079Z,1015.16
2016-07-24T04:50:36.106Z,1015.15
2016-07-24T04:51:36.132Z,1015.13
2016-07-24T04:52:36.161Z,1015.11
2016-07-24T04:53:36.189Z,1015.12
2016-07-24T04:54:36.216Z,1015.14
2016-07-24T04:55:36.242Z,1015.15
2016-07-24T04:56:36.270Z,1015.15
2016-07-24T04:57:36.298Z,1015.18
2016-07-24T04:58:36.325Z,1015.14
2016-07-24T04:59:36.354Z,1015.17
2016-07-24T05:00:36.380Z,1015.16
2016-07-24T05:01:36.407Z,1015.14
2016-07-24T05:02:36.433Z,1015.18
2016-07-24T05:03:36.476Z,1015.13
2016-07-24T05:04:36.487Z,1015.18
2016-07-24T05:05:36.516Z,1015.16
2016-07-24T05:06:36.543Z,1015.13
2016-07-24T05:07:36.570Z,1015.22
2016-07-24T05:08:36.599Z,1015.18
2016-07-24T05:09:36.626Z,1015.19
2016-07-24T05:10:36.653Z,1015.17
2016-07-24T05:11:36.681Z,1015.18
2016-07-24T05:12:36.707Z,1015.17
2016-07-24T05:13:36.736Z,1015.12
2016-07-24T05:14:36.762Z,1015.08
2016-07-24T05:16:36.816Z,1015.09
2016-07-24T05:17:36.845Z,1015.11
2016-07-24T05:18:36.873Z,1015.09
2016-07-24T05:19:36.899Z,1015.12
2016-07-24T05:20:36.928Z,1015.06
2016-07-24T05:21:36.956Z,1015.07
2016-07-24T05:22:36.982Z,1015.05
2016-07-24T05:23:37.011Z,1015.06
2016-07-24T05:24:37.036Z,1015.08
2016-07-24T05:25:37.063Z,1015.08
2016-07-24T05:26:37.093Z,1015.08
2016-07-24T05:27:37.121Z,1015.08
2016-07-24T05:28:37.147Z,1015.06
2016-07-24T05:29:37.188Z,1015.09
2016-07-24T05:30:37.201Z,1015.06
2016-07-24T05:32:37.259Z,1015.1
2016-07-24T05:33:37.285Z,1015.08
2016-07-24T05:34:37.314Z,1015.08
2016-07-24T05:35:37.342Z,1015.08
2016-07-24T05:36:37.366Z,1015.09
2016-07-24T05:37:37.397Z,1015.07
2016-07-24T05:38:37.426Z,1015.08
2016-07-24T05:39:37.451Z,1015.05
2016-07-24T05:40:37.477Z,1015.05
2016-07-24T05:41:37.505Z,1015.07
2016-07-24T05:42:37.535Z,1015.04
2016-07-24T05:43:37.562Z,1015.04
2016-07-24T05:44:37.588Z,1015.08
2016-07-24T05:45:37.619Z,1015.09
2016-07-24T05:46:37.644Z,1015.12
2016-07-24T05:48:37.701Z,1015.17
2016-07-24T05:49:37.728Z,1015.12
2016-07-24T05:50:37.756Z,1015.14
2016-07-24T05:51:37.788Z,1015.2
2016-07-24T05:52:37.812Z,1015.33
2016-07-24T05:53:37.842Z,1015.38
2016-07-24T05:54:37.871Z,1015.39
2016-07-24T05:55:37.899Z,1015.4
2016-07-24T05:56:37.927Z,1015.46
2016-07-24T05:57:37.955Z,1015.52
2016-07-24T05:58:37.985Z,1015.49
2016-07-24T05:59:38.016Z,1015.49
2016-07-24T06:00:38.044Z,1015.48
2016-07-24T06:01:38.076Z,1015.49
2016-07-24T06:02:38.103Z,1015.48
2016-07-24T06:04:38.165Z,1015.52
2016-07-24T06:05:38.196Z,1015.58
2016-07-24T06:06:38.226Z,1015.58
2016-07-24T06:07:38.258Z,1015.56
2016-07-24T06:08:38.291Z,1015.55
2016-07-24T06:09:38.324Z,1015.56
2016-07-24T06:10:38.355Z,1015.55
2016-07-24T06:11:38.386Z,1015.53
2016-07-24T06:12:38.421Z,1015.56
2016-07-24T06:13:38.450Z,1015.58
2016-07-24T06:14:38.484Z,1015.59
2016-07-24T06:15:38.517Z,1015.59
2016-07-24T06:16:38.553Z,1015.57
2016-07-24T06:17:38.583Z,1015.62
2016-07-24T06:19:38.646Z,1015.71
2016-07-24T06:20:38.681Z,1015.57
2016-07-24T06:21:38.714Z,1015.41
2016-07-24T06:22:38.745Z,1015.46
2016-07-24T06:23:38.781Z,1015.37
2016-07-24T06:24:38.812Z,1015.36
2016-07-24T06:25:38.845Z,1015.36
2016-07-24T06:26:38.879Z,1015.38
2016-07-24T06:27:38.908Z,1015.37
2016-07-24T06:28:38.943Z,1015.34
2016-07-24T06:29:38.975Z,1015.37
2016-07-24T06:30:39.008Z,1015.44
2016-07-24T06:31:39.038Z,1015.51
2016-07-24T06:32:39.070Z,1015.56
2016-07-24T06:33:39.117Z,1015.5
2016-07-24T06:34:39.135Z,1015.49
2016-07-24T06:35:39.166Z,1015.51
2016-07-24T06:36:39.200Z,1015.52
2016-07-24T06:37:39.233Z,1015.6
2016-07-24T06:38:39.262Z,1015.55
2016-07-24T06:39:39.295Z,1015.68
2016-07-24T06:40:39.329Z,1015.72
2016-07-24T06:41:39.358Z,1015.67
2016-07-24T06:42:39.392Z,1015.74
2016-07-24T06:43:39.424Z,1015.79
2016-07-24T06:44:39.455Z,1015.95
2016-07-24T06:45:39.486Z,1015.95
2016-07-24T06:46:39.569Z,1015.93
2016-07-24T06:47:39.553Z,1015.8
2016-07-24T06:48:39.583Z,1015.93
2016-07-24T06:49:39.613Z,1015.8
2016-07-24T06:51:39.680Z,1016.02
2016-07-24T06:52:39.710Z,1015.93
2016-07-24T06:53:39.742Z,1015.92
2016-07-24T06:54:39.774Z,1015.97
2016-07-24T06:55:39.811Z,1015.83
2016-07-24T06:56:39.839Z,1015.83
2016-07-24T06:57:39.879Z,1015.93
2016-07-24T06:58:39.905Z,1016.04
2016-07-24T06:59:39.938Z,1015.99
2016-07-24T07:00:39.969Z,1016.07
2016-07-24T07:01:40.004Z,1016.04
2016-07-24T07:02:40.038Z,1015.9
2016-07-24T07:03:40.067Z,1015.87
2016-07-24T07:04:40.105Z,1015.85
2016-07-24T07:05:40.135Z,1015.93
2016-07-24T07:07:40.200Z,1015.9
2016-07-24T07:08:40.232Z,1015.96
2016-07-24T07:09:40.263Z,1015.95
2016-07-24T07:10:40.295Z,1016.01
2016-07-24T07:11:40.330Z,1016.05
2016-07-24T07:12:40.363Z,1016.09
2016-07-24T07:13:40.393Z,1016.12
2016-07-24T07:14:40.429Z,1016.06
2016-07-24T07:15:40.461Z,1016.03
2016-07-24T07:16:40.491Z,1016.02
2016-07-24T07:17:40.525Z,1016.08
2016-07-24T07:18:40.562Z,1016.18
2016-07-24T07:19:40.590Z,1016.11
2016-07-24T07:20:40.623Z,1016.13
2016-07-24T07:21:40.658Z,1016.04
2016-07-24T07:23:40.723Z,1016.07
2016-07-24T07:24:40.757Z,1016.09
2016-07-24T07:25:40.787Z,1016.16
2016-07-24T07:26:40.819Z,1016.01
2016-07-24T07:27:40.853Z,1016.03
2016-07-24T07:28:40.887Z,1016.05
2016-07-24T07:29:40.921Z,1016.08
2016-07-24T07:30:40.952Z,1016.11
2016-07-24T07:31:40.987Z,1016.11
2016-07-24T07:32:41.018Z,1016.1
2016-07-24T07:33:41.053Z,1015.87
2016-07-24T07:34:41.085Z,1015.89
2016-07-24T07:35:41.119Z,1015.87
2016-07-24T07:36:41.150Z,1016.02
2016-07-24T07:37:41.184Z,1015.98
2016-07-24T07:39:41.248Z,1015.99
2016-07-24T07:40:41.282Z,1015.95
2016-07-24T07:41:41.314Z,1016
2016-07-24T07:42:41.350Z,1015.95
2016-07-24T07:43:41.380Z,1015.94
2016-07-24T07:44:41.412Z,1015.92
2016-07-24T07:45:41.448Z,1015.78
2016-07-24T07:46:41.479Z,1015.87
2016-07-24T07:47:41.513Z,1015.94
2016-07-24T07:48:41.545Z,1015.87
2016-07-24T07:49:41.581Z,1015.84
2016-07-24T07:50:41.614Z,1015.87
2016-07-24T07:51:41.646Z,1015.81
2016-07-24T07:52:41.678Z,1015.85
2016-07-24T07:54:41.747Z,1015.81
2016-07-24T07:55:41.780Z,1015.81
2016-07-24T07:56:41.813Z,1015.79
2016-07-24T07:57:41.846Z,1015.74
2016-07-24T07:58:41.878Z,1015.71
2016-07-24T07:59:41.912Z,1015.72
2016-07-24T08:00:41.946Z,1015.74
2016-07-24T08:01:41.977Z,1015.7
2016-07-24T08:02:42.012Z,1015.7
2016-07-24T08:03:42.045Z,1015.65
2016-07-24T08:04:42.076Z,1015.67
2016-07-24T08:05:42.110Z,1015.67
2016-07-24T08:06:42.142Z,1015.7
2016-07-24T08:07:42.175Z,1015.74
2016-07-24T08:08:42.210Z,1015.68
2016-07-24T08:09:42.244Z,1015.75
2016-07-24T08:10:42.273Z,1015.73
2016-07-24T08:11:42.310Z,1015.78
2016-07-24T08:12:42.343Z,1015.73
2016-07-24T08:13:42.375Z,1015.7
2016-07-24T08:14:42.408Z,1015.72
2016-07-24T08:15:42.443Z,1015.71
2016-07-24T08:16:42.476Z,1015.65
2016-07-24T08:17:42.508Z,1015.71
2016-07-24T08:18:42.539Z,1015.64
2016-07-24T08:19:42.573Z,1015.6
2016-07-24T08:20:42.607Z,1015.56
2016-07-24T08:21:42.638Z,1015.59
2016-07-24T08:22:42.672Z,1015.6
2016-07-24T08:23:42.705Z,1015.58
2016-07-24T08:24:42.737Z,1015.63
2016-07-24T08:26:42.806Z,1015.54
2016-07-24T08:27:42.836Z,1015.55
2016-07-24T08:28:42.871Z,1015.56
2016-07-24T08:29:42.904Z,1015.55
2016-07-24T08:30:42.935Z,1015.56
2016-07-24T08:31:42.967Z,1015.56
2016-07-24T08:32:43.000Z,1015.54
2016-07-24T08:33:43.035Z,1015.5
2016-07-24T08:34:43.066Z,1015.5
2016-07-24T08:35:43.100Z,1015.62
2016-07-24T08:36:43.132Z,1015.56
2016-07-24T08:37:43.166Z,1015.64
2016-07-24T08:38:43.198Z,1015.49
2016-07-24T08:39:43.228Z,1015.55
2016-07-24T08:40:43.262Z,1015.56
2016-07-24T08:42:43.328Z,1015.45
2016-07-24T08:43:43.358Z,1015.43
2016-07-24T08:44:43.392Z,1015.4
2016-07-24T08:45:43.427Z,1015.43
2016-07-24T08:46:43.457Z,1015.48
2016-07-24T08:47:43.489Z,1015.47
2016-07-24T08:48:43.521Z,1015.46
2016-07-24T08:49:43.556Z,1015.46
2016-07-24T08:50:43.587Z,1015.46
2016-07-24T08:51:43.620Z,1015.48
2016-07-24T08:52:43.654Z,1015.52
2016-07-24T08:53:43.683Z,1015.46
2016-07-24T08:54:43.714Z,1015.48
2016-07-24T08:55:43.753Z,1015.46
2016-07-24T08:56:43.782Z,1015.43
2016-07-24T08:58:43.844Z,1015.43
2016-07-24T08:59:43.928Z,1015.43
2016-07-24T09:00:43.911Z,1015.37
2016-07-24T09:01:43.943Z,1015.36
2016-07-24T09:02:43.976Z,1015.36
2016-07-24T09:03:44.006Z,1015.41
2016-07-24T09:04:44.040Z,1015.37
2016-07-24T09:05:44.071Z,1015.38
2016-07-24T09:06:44.106Z,1015.37
2016-07-24T09:07:44.139Z,1015.38
2016-07-24T09:08:44.167Z,1015.36
2016-07-24T09:09:44.203Z,1015.32
2016-07-24T09:10:44.234Z,1015.33
2016-07-24T09:11:44.268Z,1015.31
2016-07-24T09:12:44.300Z,1015.29
2016-07-24T09:14:44.363Z,1015.38
2016-07-24T09:15:44.396Z,1015.33
2016-07-24T09:16:44.428Z,1015.34
2016-07-24T09:17:44.464Z,1015.31
2016-07-24T09:18:44.493Z,1015.31
2016-07-24T09:19:44.526Z,1015.3
2016-07-24T09:20:44.559Z,1015.29
2016-07-24T09:21:44.592Z,1015.31
2016-07-24T09:22:44.623Z,1015.31
2016-07-24T09:23:44.655Z,1015.33
2016-07-24T09:24:44.688Z,1015.38
2016-07-24T09:25:44.720Z,1015.31
2016-07-24T09:26:44.754Z,1015.34
2016-07-24T09:27:44.786Z,1015.34
2016-07-24T09:29:44.850Z,1015.36
2016-07-24T09:30:44.885Z,1015.34
2016-07-24T09:31:44.917Z,1015.38
2016-07-24T09:32:44.950Z,1015.33
2016-07-24T09:33:44.981Z,1015.36
2016-07-24T09:34:45.014Z,1015.3
2016-07-24T09:35:45.045Z,1015.25
2016-07-24T09:36:45.080Z,1015.26
2016-07-24T09:37:45.112Z,1015.26
2016-07-24T09:38:45.144Z,1015.24
2016-07-24T09:39:45.175Z,1015.29
2016-07-24T09:40:45.210Z,1015.3
2016-07-24T09:41:45.240Z,1015.28
2016-07-24T09:42:45.275Z,1015.28
2016-07-24T09:43:45.306Z,1015.3
2016-07-24T09:44:45.340Z,1015.31
2016-07-24T09:45:45.372Z,1015.28
2016-07-24T09:46:45.403Z,1015.25
2016-07-24T09:47:45.439Z,1015.26
2016-07-24T09:48:45.468Z,1015.22
2016-07-24T09:49:45.502Z,1015.2
2016-07-24T09:50:45.534Z,1015.23
2016-07-24T09:51:45.568Z,1015.19
2016-07-24T09:52:45.599Z,1015.21
2016-07-24T09:53:45.634Z,1015.21
2016-07-24T09:54:45.667Z,1015.21
2016-07-24T09:55:45.699Z,1015.2
2016-07-24T09:56:45.729Z,1015.21
2016-07-24T09:57:45.764Z,1015.23
2016-07-24T09:58:45.797Z,1015.18
2016-07-24T09:59:45.826Z,1015.13
2016-07-24T10:01:45.944Z,1015.13
2016-07-24T10:02:45.925Z,1015.17
2016-07-24T10:03:45.956Z,1015.12
2016-07-24T10:04:45.995Z,1015.19
2016-07-24T10:05:46.024Z,1015.18
2016-07-24T10:06:46.055Z,1015.15
2016-07-24T10:07:46.088Z,1015.16
2016-07-24T10:08:46.121Z,1015.2
2016-07-24T10:09:46.153Z,1015.18
2016-07-24T10:10:46.185Z,1015.16
2016-07-24T10:11:46.217Z,1015.16
2016-07-24T10:12:46.254Z,1015.13
2016-07-24T10:13:46.281Z,1015.1
2016-07-24T10:14:46.315Z,1015.13
2016-07-24T10:15:46.348Z,1015.13
2016-07-24T10:17:46.414Z,1015.12
2016-07-24T10:18:46.449Z,1015.09
2016-07-24T10:19:46.478Z,1015.08
2016-07-24T10:20:46.511Z,1015.09
2016-07-24T10:21:46.543Z,1015.06
2016-07-24T10:22:46.580Z,1015.1
2016-07-24T10:23:46.611Z,1015.09
2016-07-24T10:24:46.644Z,1015.05
2016-07-24T10:25:46.675Z,1015.06
2016-07-24T10:26:46.707Z,1015.07
2016-07-24T10:27:46.741Z,1015.06
2016-07-24T10:28:46.774Z,1015.07
2016-07-24T10:29:46.808Z,1015.11
2016-07-24T10:30:46.839Z,1015.06
2016-07-24T10:31:46.874Z,1015.1
2016-07-24T10:33:46.938Z,1015.08
2016-07-24T10:34:46.972Z,1015.08
2016-07-24T10:35:47.008Z,1015.06
2016-07-24T10:36:47.036Z,1015
2016-07-24T10:37:47.071Z,1015.02
2016-07-24T10:38:47.102Z,1015.01
2016-07-24T10:39:47.137Z,1015.02
2016-07-24T10:40:47.169Z,1014.99
2016-07-24T10:41:47.203Z,1014.94
2016-07-24T10:42:47.235Z,1014.99
2016-07-24T10:43:47.269Z,1015
2016-07-24T10:44:47.302Z,1015.03
2016-07-24T10:45:47.336Z,1014.98
2016-07-24T10:46:47.368Z,1014.96
2016-07-24T10:47:47.401Z,1015.01
2016-07-24T10:49:47.468Z,1015.03
2016-07-24T10:50:47.498Z,1015.04
2016-07-24T10:51:47.531Z,1015.01
2016-07-24T10:52:47.566Z,1015.02
2016-07-24T10:53:47.599Z,1015.02
2016-07-24T10:54:47.630Z,1015
2016-07-24T10:55:47.662Z,1015
2016-07-24T10:56:47.695Z,1015.09
2016-07-24T10:57:47.728Z,1015.04
2016-07-24T10:58:47.760Z,1015
2016-07-24T10:59:47.795Z,1015.02
2016-07-24T11:00:47.826Z,1015.04
2016-07-24T11:01:47.860Z,1015
2016-07-24T11:02:47.894Z,1014.98
2016-07-24T11:04:47.958Z,1014.96
2016-07-24T11:05:47.991Z,1014.98
2016-07-24T11:06:48.024Z,1014.99
2016-07-24T11:07:48.056Z,1014.98
2016-07-24T11:08:48.092Z,1014.98
2016-07-24T11:09:48.122Z,1014.97
2016-07-24T11:10:48.157Z,1014.97
2016-07-24T11:11:48.190Z,1014.98
2016-07-24T11:12:48.222Z,1014.97
2016-07-24T11:13:48.252Z,1014.96
2016-07-24T11:14:48.288Z,1014.97
2016-07-24T11:15:48.319Z,1014.99
2016-07-24T11:16:48.353Z,1014.93
2016-07-24T11:17:48.385Z,1014.92
2016-07-24T11:18:48.419Z,1014.91
2016-07-24T11:19:48.449Z,1014.9
2016-07-24T11:20:48.481Z,1014.87
2016-07-24T11:21:48.513Z,1014.86
2016-07-24T11:22:48.547Z,1014.88
2016-07-24T11:23:48.578Z,1014.89
2016-07-24T11:24:48.613Z,1014.84
2016-07-24T11:25:48.646Z,1014.86
2016-07-24T11:26:48.679Z,1014.9
2016-07-24T11:27:48.709Z,1014.85
2016-07-24T11:28:48.741Z,1014.84
2016-07-24T11:29:48.774Z,1014.8
2016-07-24T11:30:48.808Z,1014.83
2016-07-24T11:31:48.838Z,1014.78
2016-07-24T11:32:48.871Z,1014.8
2016-07-24T11:33:48.906Z,1014.8
2016-07-24T11:34:48.936Z,1014.79
2016-07-24T11:36:49.004Z,1014.74
2016-07-24T11:37:49.034Z,1014.73
2016-07-24T11:38:49.068Z,1014.72
2016-07-24T11:39:49.098Z,1014.69
2016-07-24T11:40:49.132Z,1014.72
2016-07-24T11:41:49.164Z,1014.7
2016-07-24T11:42:49.197Z,1014.73
2016-07-24T11:43:49.230Z,1014.71
2016-07-24T11:44:49.263Z,1014.76
2016-07-24T11:45:49.294Z,1014.74
2016-07-24T11:46:49.325Z,1014.72
2016-07-24T11:47:49.358Z,1014.74
2016-07-24T11:48:49.392Z,1014.74
2016-07-24T11:49:49.421Z,1014.74
2016-07-24T11:50:49.457Z,1014.71
2016-07-24T11:52:49.519Z,1014.67
2016-07-24T11:53:49.550Z,1014.66
2016-07-24T11:54:49.583Z,1014.67
2016-07-24T11:55:49.615Z,1014.64
2016-07-24T11:56:49.647Z,1014.61
2016-07-24T11:57:49.680Z,1014.6
2016-07-24T11:58:49.714Z,1014.61
2016-07-24T11:59:49.747Z,1014.66
2016-07-24T12:00:49.778Z,1014.66
2016-07-24T12:01:49.859Z,1014.67
2016-07-24T12:02:49.841Z,1014.69
2016-07-24T12:03:49.875Z,1014.67
2016-07-24T12:04:49.907Z,1014.71
2016-07-24T12:05:49.937Z,1014.72
2016-07-24T12:06:49.972Z,1014.76
2016-07-24T12:08:50.036Z,1014.67
2016-07-24T12:09:50.067Z,1014.71
2016-07-24T12:10:50.098Z,1014.69
2016-07-24T12:11:50.130Z,1014.67
2016-07-24T12:12:50.162Z,1014.67
2016-07-24T12:13:50.194Z,1014.71
2016-07-24T12:14:50.229Z,1014.67
2016-07-24T12:15:50.258Z,1014.66
2016-07-24T12:16:50.291Z,1014.67
2016-07-24T12:17:50.325Z,1014.68
2016-07-24T12:18:50.354Z,1014.67
2016-07-24T12:19:50.387Z,1014.67
2016-07-24T12:20:50.421Z,1014.64
2016-07-24T12:21:50.451Z,1014.64
2016-07-24T12:22:50.482Z,1014.64
2016-07-24T12:24:50.551Z,1014.63
2016-07-24T12:25:50.580Z,1014.63
2016-07-24T12:26:50.610Z,1014.63
2016-07-24T12:27:50.646Z,1014.61
2016-07-24T12:28:50.675Z,1014.66
2016-07-24T12:29:50.707Z,1014.63
2016-07-24T12:30:50.741Z,1014.61
2016-07-24T12:31:50.774Z,1014.6
2016-07-24T12:32:50.804Z,1014.59
2016-07-24T12:33:50.838Z,1014.6
2016-07-24T12:34:50.871Z,1014.6
2016-07-24T12:35:50.900Z,1014.61
2016-07-24T12:36:50.934Z,1014.54
2016-07-24T12:37:50.967Z,1014.53
2016-07-24T12:39:51.029Z,1014.46
2016-07-24T12:40:51.062Z,1014.5
2016-07-24T12:41:51.093Z,1014.49
2016-07-24T12:42:51.124Z,1014.46
2016-07-24T12:43:51.160Z,1014.44
2016-07-24T12:44:51.191Z,1014.49
2016-07-24T12:45:51.223Z,1014.46
2016-07-24T12:46:51.254Z,1014.48
2016-07-24T12:47:51.291Z,1014.47
2016-07-24T12:48:51.321Z,1014.44